createdAt,value
2022-10-09T00:01:34.014Z,11.55
2022-10-09T00:04:06.835Z,11.56
2022-10-09T00:06:38.711Z,11.58
2022-10-09T00:09:10.891Z,11.59
2022-10-09T00:11:45.198Z,11.60
2022-10-09T00:14:17.316Z,11.61
2022-10-09T00:16:49.152Z,11.60
2022-10-09T00:19:21.688Z,11.60
2022-10-09T00:21:53.594Z,11.58
2022-10-09T00:24:25.800Z,11.59
2022-10-09T00:27:00.274Z,11.58
2022-10-09T00:29:33.016Z,11.58
2022-10-09T00:32:04.786Z,11.57
2022-10-09T00:34:37.672Z,11.56
2022-10-09T00:37:09.822Z,11.54
2022-10-09T00:39:41.844Z,11.53
2022-10-09T00:42:14.387Z,11.53
2022-10-09T00:45:00.527Z,11.52
2022-10-09T00:47:34.924Z,11.52
2022-10-09T00:50:12.786Z,11.51
2022-10-09T00:52:44.908Z,11.50
2022-10-09T00:55:17.606Z,11.47
2022-10-09T00:57:49.594Z,11.45
2022-10-09T01:00:24.763Z,11.42
2022-10-09T01:02:57.289Z,11.39
2022-10-09T01:05:34.916Z,11.35
2022-10-09T01:08:14.051Z,11.31
2022-10-09T01:10:51.565Z,11.28
2022-10-09T01:13:27.745Z,11.24
2022-10-09T01:16:02.919Z,11.22
2022-10-09T01:18:42.164Z,11.21
2022-10-09T01:21:18.463Z,11.19
2022-10-09T01:24:08.525Z,11.17
2022-10-09T01:26:57.205Z,11.14
2022-10-09T01:29:33.829Z,11.10
2022-10-09T01:32:07.071Z,11.06
2022-10-09T01:34:41.654Z,11.02
2022-10-09T01:37:14.175Z,10.98
2022-10-09T01:39:47.489Z,10.95
2022-10-09T01:42:21.684Z,10.93
2022-10-09T01:44:51.981Z,10.91
2022-10-09T01:47:24.518Z,10.87
2022-10-09T01:50:01.811Z,10.85
2022-10-09T01:52:43.538Z,10.83
2022-10-09T01:55:28.760Z,10.81
2022-10-09T01:58:05.625Z,10.78
2022-10-09T02:00:43.496Z,10.77
2022-10-09T02:03:17.171Z,10.75
2022-10-09T02:05:50.824Z,10.74
2022-10-09T02:08:27.607Z,10.72
2022-10-09T02:11:05.062Z,10.70
2022-10-09T02:13:40.371Z,10.66
2022-10-09T02:16:16.319Z,10.63
2022-10-09T02:18:58.041Z,10.59
2022-10-09T02:21:32.723Z,10.54
2022-10-09T02:24:05.729Z,10.49
2022-10-09T02:26:38.140Z,10.46
2022-10-09T02:29:10.245Z,10.43
2022-10-09T02:31:44.906Z,10.37
2022-10-09T02:34:20.659Z,10.32
2022-10-09T02:36:52.891Z,10.27
2022-10-09T02:39:24.984Z,10.21
2022-10-09T02:41:57.004Z,10.17
2022-10-09T02:44:29.446Z,10.13
2022-10-09T02:47:02.919Z,10.09
2022-10-09T02:49:35.145Z,10.05
2022-10-09T02:52:08.920Z,10.00
2022-10-09T02:54:40.803Z,9.96
2022-10-09T02:57:12.795Z,9.92
2022-10-09T02:59:46.884Z,9.88
2022-10-09T03:02:19.124Z,9.86
2022-10-09T03:04:51.158Z,9.83
2022-10-09T03:07:23.245Z,9.80
2022-10-09T03:09:59.073Z,9.77
2022-10-09T03:12:31.274Z,9.74
2022-10-09T03:15:03.255Z,9.71
2022-10-09T03:17:35.070Z,9.68
2022-10-09T03:20:09.051Z,9.66
2022-10-09T03:22:43.652Z,9.63
2022-10-09T03:25:15.735Z,9.59
2022-10-09T03:27:47.974Z,9.56
2022-10-09T03:30:20.209Z,9.54
2022-10-09T03:32:52.628Z,9.51
2022-10-09T03:35:24.749Z,9.49
2022-10-09T03:37:56.833Z,9.47
2022-10-09T03:40:28.852Z,9.44
2022-10-09T03:43:00.693Z,9.42
2022-10-09T03:45:33.317Z,9.40
2022-10-09T03:48:05.267Z,9.39
2022-10-09T03:50:38.303Z,9.38
2022-10-09T03:53:12.170Z,9.35
2022-10-09T03:55:45.341Z,9.33
2022-10-09T03:58:20.168Z,9.31
2022-10-09T04:00:55.812Z,9.28
2022-10-09T04:03:29.094Z,9.25
2022-10-09T04:06:01.338Z,9.20
2022-10-09T04:08:34.348Z,9.16
2022-10-09T04:11:07.322Z,9.13
2022-10-09T04:13:39.475Z,9.11
2022-10-09T04:16:12.944Z,9.08
2022-10-09T04:18:45.838Z,9.07
2022-10-09T04:21:18.027Z,9.04
2022-10-09T04:23:49.898Z,9.02
2022-10-09T04:26:21.951Z,9.02
2022-10-09T04:28:54.113Z,9.02
2022-10-09T04:31:26.100Z,9.02
2022-10-09T04:33:59.136Z,9.02
2022-10-09T04:36:30.848Z,9.02
2022-10-09T04:39:04.193Z,9.03
2022-10-09T04:41:38.413Z,9.05
2022-10-09T04:44:11.290Z,9.04
2022-10-09T04:46:43.343Z,9.05
2022-10-09T04:49:16.331Z,9.06
2022-10-09T04:51:48.169Z,9.05
2022-10-09T04:54:20.578Z,9.06
2022-10-09T04:56:52.496Z,9.07
2022-10-09T04:59:24.947Z,9.07
2022-10-09T05:01:57.474Z,9.05
2022-10-09T05:04:29.593Z,9.02
2022-10-09T05:07:01.534Z,9.02
2022-10-09T05:09:33.585Z,9.02
2022-10-09T05:12:07.073Z,9.01
2022-10-09T05:14:41.554Z,8.99
2022-10-09T05:17:14.981Z,8.96
2022-10-09T05:19:47.920Z,8.95
2022-10-09T05:22:20.296Z,8.92
2022-10-09T05:24:53.653Z,8.90
2022-10-09T05:27:25.748Z,8.90
2022-10-09T05:29:58.051Z,8.91
2022-10-09T05:32:30.448Z,8.92
2022-10-09T05:35:02.501Z,8.93
2022-10-09T05:37:34.312Z,8.93
2022-10-09T05:40:07.149Z,8.92
2022-10-09T05:42:39.387Z,8.92
2022-10-09T05:45:13.790Z,8.94
2022-10-09T05:47:46.416Z,8.97
2022-10-09T05:50:21.071Z,8.99
2022-10-09T05:52:53.254Z,9.02
2022-10-09T05:55:25.387Z,9.05
2022-10-09T05:57:57.535Z,9.07
2022-10-09T06:00:29.389Z,9.11
2022-10-09T06:03:02.958Z,9.15
2022-10-09T06:05:34.887Z,9.17
2022-10-09T06:08:06.926Z,9.19
2022-10-09T06:10:38.835Z,9.20
2022-10-09T06:13:10.694Z,9.22
2022-10-09T06:15:52.107Z,9.25
2022-10-09T06:18:26.394Z,9.27
2022-10-09T06:20:59.563Z,9.28
2022-10-09T06:23:34.246Z,9.30
2022-10-09T06:26:09.258Z,9.32
2022-10-09T06:28:42.003Z,9.36
2022-10-09T06:31:16.809Z,9.38
2022-10-09T06:33:50.212Z,9.41
2022-10-09T06:36:23.344Z,9.43
2022-10-09T06:38:56.831Z,9.43
2022-10-09T06:41:30.703Z,9.45
2022-10-09T06:44:02.161Z,9.47
2022-10-09T06:46:37.405Z,9.47
2022-10-09T06:49:12.630Z,9.50
2022-10-09T06:51:44.620Z,9.52
2022-10-09T06:54:18.051Z,9.55
2022-10-09T06:56:51.693Z,9.60
2022-10-09T06:59:24.103Z,9.62
2022-10-09T07:01:57.433Z,9.65
2022-10-09T07:04:29.565Z,9.67
2022-10-09T07:07:02.989Z,9.67
2022-10-09T07:09:36.508Z,9.68
2022-10-09T07:12:12.208Z,9.66
2022-10-09T07:14:44.451Z,9.67
2022-10-09T07:17:16.318Z,9.67
2022-10-09T07:19:48.406Z,9.69
2022-10-09T07:22:26.779Z,9.71
2022-10-09T07:24:59.827Z,9.73
2022-10-09T07:27:33.192Z,9.77
2022-10-09T07:30:05.759Z,9.79
2022-10-09T07:32:37.864Z,9.79
2022-10-09T07:35:10.817Z,9.79
2022-10-09T07:37:43.568Z,9.79
2022-10-09T07:40:15.540Z,9.80
2022-10-09T07:42:48.013Z,9.84
2022-10-09T07:45:20.454Z,9.87
2022-10-09T07:47:52.543Z,9.88
2022-10-09T07:50:24.999Z,9.90
2022-10-09T07:52:57.586Z,9.92
2022-10-09T07:55:30.519Z,9.91
2022-10-09T07:58:02.478Z,9.93
2022-10-09T08:00:34.410Z,9.97
2022-10-09T08:03:06.849Z,10.03
2022-10-09T08:05:39.086Z,10.06
2022-10-09T08:08:10.981Z,10.15
2022-10-09T08:10:43.358Z,10.24
2022-10-09T08:13:15.673Z,10.29
2022-10-09T08:15:47.831Z,10.31
2022-10-09T08:18:19.810Z,10.31
2022-10-09T08:21:00.982Z,10.34
2022-10-09T08:23:33.186Z,10.35
2022-10-09T08:26:05.423Z,10.34
2022-10-09T08:28:37.368Z,10.33
2022-10-09T08:31:15.229Z,10.37
2022-10-09T08:33:47.327Z,10.42
2022-10-09T08:36:19.467Z,10.46
2022-10-09T08:38:52.878Z,10.51
2022-10-09T08:41:31.041Z,10.56
2022-10-09T08:44:06.566Z,10.58
2022-10-09T08:46:47.693Z,10.62
2022-10-09T08:49:26.293Z,10.60
2022-10-09T08:52:01.400Z,10.59
2022-10-09T08:54:39.309Z,10.61
2022-10-09T08:57:15.958Z,10.59
2022-10-09T08:59:48.245Z,10.58
2022-10-09T09:02:37.980Z,10.60
2022-10-09T09:05:30.830Z,10.62
2022-10-09T09:08:11.039Z,10.59
2022-10-09T09:10:44.762Z,10.57
2022-10-09T09:13:31.269Z,10.58
2022-10-09T09:16:07.197Z,10.65
2022-10-09T09:18:45.283Z,10.74
2022-10-09T09:21:31.946Z,10.84
2022-10-09T09:24:07.082Z,10.95
2022-10-09T09:26:39.043Z,11.01
2022-10-09T09:29:15.972Z,11.07
2022-10-09T09:31:53.607Z,11.14
2022-10-09T09:34:29.149Z,11.18
2022-10-09T09:37:02.563Z,11.19
2022-10-09T09:40:24.227Z,11.19
2022-10-09T09:42:28.528Z,11.18
2022-10-09T09:45:04.065Z,11.19
2022-10-09T09:47:40.296Z,11.24
2022-10-09T09:50:35.125Z,11.33
2022-10-09T09:53:09.028Z,11.36
2022-10-09T09:55:41.482Z,11.34
2022-10-09T09:58:19.298Z,11.28
2022-10-09T10:01:03.804Z,11.26
2022-10-09T10:03:37.035Z,11.28
2022-10-09T10:06:23.120Z,11.33
2022-10-09T10:09:06.695Z,11.38
2022-10-09T10:11:38.521Z,11.37
2022-10-09T10:14:14.701Z,11.34
2022-10-09T10:16:49.207Z,11.29
2022-10-09T10:19:24.351Z,11.29
2022-10-09T10:22:01.120Z,11.31
2022-10-09T10:24:36.011Z,11.31
2022-10-09T10:27:11.299Z,11.30
2022-10-09T10:29:44.887Z,11.30
2022-10-09T10:32:18.953Z,11.31
2022-10-09T10:34:54.778Z,11.29
2022-10-09T10:37:34.696Z,11.27
2022-10-09T10:40:15.044Z,11.28
2022-10-09T10:42:57.335Z,11.33
2022-10-09T10:45:35.070Z,11.36
2022-10-09T10:48:10.083Z,11.34
2022-10-09T10:50:48.430Z,11.32
2022-10-09T10:53:27.333Z,11.37
2022-10-09T10:56:05.218Z,11.39
2022-10-09T10:58:48.007Z,11.38
2022-10-09T11:01:33.528Z,11.36
2022-10-09T11:04:25.253Z,11.35
2022-10-09T11:07:02.009Z,11.33
2022-10-09T11:09:43.376Z,11.31
2022-10-09T11:12:43.312Z,11.34
2022-10-09T11:15:28.313Z,11.40
2022-10-09T11:18:20.427Z,11.41
2022-10-09T11:21:01.347Z,11.37
2022-10-09T11:23:52.771Z,11.34
2022-10-09T11:26:40.021Z,11.31
2022-10-09T11:29:19.891Z,11.29
2022-10-09T11:31:57.301Z,11.31
2022-10-09T11:34:35.975Z,11.34
2022-10-09T11:37:17.746Z,11.37
2022-10-09T11:39:50.417Z,11.38
2022-10-09T11:42:26.085Z,11.37
2022-10-09T11:45:06.567Z,11.39
2022-10-09T11:47:43.825Z,11.41
2022-10-09T11:50:34.894Z,11.42
2022-10-09T11:53:10.656Z,11.42
2022-10-09T11:55:43.529Z,11.43
2022-10-09T11:58:24.693Z,11.42
2022-10-09T12:01:11.569Z,11.38
2022-10-09T12:03:43.927Z,11.40
2022-10-09T12:06:22.759Z,11.44
2022-10-09T12:09:00.659Z,11.47
2022-10-09T12:11:35.825Z,11.50
2022-10-09T12:14:20.400Z,11.55
2022-10-09T12:16:55.078Z,11.62
2022-10-09T12:19:31.039Z,11.65
2022-10-09T12:22:07.995Z,11.69
2022-10-09T12:24:42.723Z,11.73
2022-10-09T12:27:22.767Z,11.71
2022-10-09T12:29:58.021Z,11.68
2022-10-09T12:32:35.272Z,11.66
2022-10-09T12:35:18.481Z,11.67
2022-10-09T12:37:54.207Z,11.67
2022-10-09T12:40:32.951Z,11.66
2022-10-09T12:43:09.909Z,11.67
2022-10-09T12:45:45.721Z,11.74
2022-10-09T12:48:25.809Z,11.80
2022-10-09T12:50:59.713Z,11.83
2022-10-09T12:53:32.315Z,11.87
2022-10-09T12:56:05.100Z,11.91
2022-10-09T12:58:41.693Z,11.96
2022-10-09T13:01:18.394Z,12.03
2022-10-09T13:04:04.000Z,12.09
2022-10-09T13:06:44.981Z,12.16
2022-10-09T13:09:23.563Z,12.18
2022-10-09T13:11:59.821Z,12.23
2022-10-09T13:14:43.573Z,12.25
2022-10-09T13:17:34.931Z,12.27
2022-10-09T13:20:33.509Z,12.33
2022-10-09T13:23:36.166Z,12.37
2022-10-09T13:26:09.338Z,12.40
2022-10-09T13:28:49.454Z,12.47
2022-10-09T13:31:25.759Z,12.56
2022-10-09T13:34:03.900Z,12.59
2022-10-09T13:36:37.139Z,12.63
2022-10-09T13:39:10.857Z,12.68
2022-10-09T13:41:46.421Z,12.74
2022-10-09T13:44:18.395Z,12.82
2022-10-09T13:46:52.140Z,12.95
2022-10-09T13:49:27.934Z,13.05
2022-10-09T13:52:01.549Z,13.12
2022-10-09T13:54:33.545Z,13.14
2022-10-09T13:57:06.037Z,13.19
2022-10-09T13:59:38.136Z,13.18
2022-10-09T14:02:11.215Z,13.08
2022-10-09T14:04:43.805Z,12.95
2022-10-09T14:07:16.007Z,12.88
2022-10-09T14:09:47.864Z,12.87
2022-10-09T14:12:19.886Z,12.89
2022-10-09T14:14:51.797Z,12.91
2022-10-09T14:17:24.015Z,12.94
2022-10-09T14:19:57.030Z,12.95
2022-10-09T14:22:31.404Z,12.92
2022-10-09T14:25:04.330Z,12.85
2022-10-09T14:27:38.329Z,12.84
2022-10-09T14:30:18.321Z,12.83
2022-10-09T14:32:51.423Z,12.82
2022-10-09T14:35:25.410Z,12.80
2022-10-09T14:37:58.884Z,12.75
2022-10-09T14:40:31.825Z,12.70
2022-10-09T14:43:03.722Z,12.66
2022-10-09T14:45:35.924Z,12.61
2022-10-09T14:48:07.756Z,12.57
2022-10-09T14:50:40.160Z,12.55
2022-10-09T14:53:12.263Z,12.51
2022-10-09T14:55:44.273Z,12.51
2022-10-09T14:58:16.394Z,12.49
2022-10-09T15:00:54.268Z,12.45
2022-10-09T15:03:27.038Z,12.37
2022-10-09T15:06:01.766Z,12.32
2022-10-09T15:08:35.716Z,12.26
2022-10-09T15:11:08.310Z,12.23
2022-10-09T15:13:40.897Z,12.18
2022-10-09T15:16:15.433Z,12.11
2022-10-09T15:18:49.452Z,12.07
2022-10-09T15:21:23.894Z,12.03
2022-10-09T15:24:00.841Z,12.01
2022-10-09T15:26:35.862Z,11.98
2022-10-09T15:29:09.356Z,11.96
2022-10-09T15:31:42.824Z,11.92
2022-10-09T15:34:15.591Z,11.85
2022-10-09T15:36:48.472Z,11.76
2022-10-09T15:39:21.596Z,11.70
2022-10-09T15:41:55.204Z,11.65
2022-10-09T15:44:27.730Z,11.62
2022-10-09T15:46:59.749Z,11.58
2022-10-09T15:49:31.689Z,11.54
2022-10-09T15:52:03.690Z,11.51
2022-10-09T15:54:37.451Z,11.49
2022-10-09T15:57:09.300Z,11.45
2022-10-09T15:59:42.600Z,11.42
2022-10-09T16:02:15.094Z,11.39
2022-10-09T16:04:47.035Z,11.36
2022-10-09T16:07:18.879Z,11.34
2022-10-09T16:09:51.263Z,11.29
2022-10-09T16:12:23.439Z,11.23
2022-10-09T16:14:55.560Z,11.17
2022-10-09T16:17:27.451Z,11.13
2022-10-09T16:20:00.304Z,11.08
2022-10-09T16:22:32.631Z,11.03
2022-10-09T16:25:04.680Z,10.98
2022-10-09T16:27:36.566Z,10.92
2022-10-09T16:30:12.168Z,10.91
2022-10-09T16:32:44.211Z,10.88
2022-10-09T16:35:16.519Z,10.84
2022-10-09T16:37:52.240Z,10.80
2022-10-09T16:40:37.423Z,10.76
2022-10-09T16:43:16.671Z,10.70
2022-10-09T16:45:48.518Z,10.66
2022-10-09T16:48:20.510Z,10.62
2022-10-09T16:50:56.702Z,10.59
2022-10-09T16:53:28.846Z,10.58
2022-10-09T16:56:09.641Z,10.56
2022-10-09T16:58:42.824Z,10.53
2022-10-09T17:01:15.541Z,10.50
2022-10-09T17:03:47.749Z,10.46
2022-10-09T17:06:21.019Z,10.43
2022-10-09T17:08:53.996Z,10.39
2022-10-09T17:11:26.814Z,10.35
2022-10-09T17:13:59.622Z,10.31
2022-10-09T17:16:34.469Z,10.26
2022-10-09T17:19:11.814Z,10.21
2022-10-09T17:21:44.348Z,10.17
2022-10-09T17:24:17.318Z,10.13
2022-10-09T17:26:49.108Z,10.10
2022-10-09T17:29:22.535Z,10.08
2022-10-09T17:31:54.291Z,10.04
2022-10-09T17:34:26.422Z,10.00
2022-10-09T17:36:58.533Z,9.95
2022-10-09T17:39:30.928Z,9.91
2022-10-09T17:42:02.822Z,9.88
2022-10-09T17:44:34.953Z,9.87
2022-10-09T17:47:07.166Z,9.85
2022-10-09T17:49:39.734Z,9.82
2022-10-09T17:52:11.763Z,9.79
2022-10-09T17:54:45.786Z,9.76
2022-10-09T17:57:16.189Z,9.74
2022-10-09T17:59:48.147Z,9.70
2022-10-09T18:02:20.515Z,9.66
2022-10-09T18:04:57.555Z,9.65
2022-10-09T18:07:30.021Z,9.62
2022-10-09T18:10:01.963Z,9.57
2022-10-09T18:12:33.784Z,9.53
2022-10-09T18:15:06.252Z,9.48
2022-10-09T18:17:38.243Z,9.43
2022-10-09T18:20:11.753Z,9.39
2022-10-09T18:22:43.751Z,9.37
2022-10-09T18:25:15.982Z,9.34
2022-10-09T18:27:48.210Z,9.31
2022-10-09T18:30:21.461Z,9.26
2022-10-09T18:32:53.347Z,9.20
2022-10-09T18:35:26.919Z,9.16
2022-10-09T18:37:58.813Z,9.11
2022-10-09T18:40:31.141Z,9.07
2022-10-09T18:43:03.337Z,9.04
2022-10-09T18:45:35.818Z,9.02
2022-10-09T18:48:08.807Z,9.00
2022-10-09T18:50:40.747Z,8.98
2022-10-09T18:53:12.785Z,8.95
2022-10-09T18:55:46.319Z,8.93
2022-10-09T18:58:20.347Z,8.90
2022-10-09T19:00:52.710Z,8.87
2022-10-09T19:03:24.660Z,8.83
2022-10-09T19:05:56.543Z,8.79
2022-10-09T19:08:28.529Z,8.77
2022-10-09T19:11:00.505Z,8.74
2022-10-09T19:13:32.438Z,8.72
2022-10-09T19:16:05.905Z,8.69
2022-10-09T19:18:38.275Z,8.63
2022-10-09T19:21:16.342Z,8.58
2022-10-09T19:23:49.135Z,8.53
2022-10-09T19:26:22.097Z,8.49
2022-10-09T19:28:55.822Z,8.47
2022-10-09T19:31:28.208Z,8.44
2022-10-09T19:34:02.375Z,8.42
2022-10-09T19:36:37.006Z,8.39
2022-10-09T19:39:10.255Z,8.36
2022-10-09T19:41:42.336Z,8.32
2022-10-09T19:44:14.261Z,8.28
2022-10-09T19:46:48.295Z,8.26
2022-10-09T19:49:20.293Z,8.23
2022-10-09T19:51:52.127Z,8.20
2022-10-09T19:54:24.054Z,8.18
2022-10-09T19:56:56.175Z,8.17
2022-10-09T19:59:28.222Z,8.16
2022-10-09T20:02:00.743Z,8.13
2022-10-09T20:04:32.905Z,8.13
2022-10-09T20:07:07.841Z,8.10
2022-10-09T20:09:42.246Z,8.08
2022-10-09T20:12:14.435Z,8.04
2022-10-09T20:14:46.505Z,8.00
2022-10-09T20:17:18.619Z,7.96
2022-10-09T20:19:50.999Z,7.91
2022-10-09T20:22:23.183Z,7.87
2022-10-09T20:24:56.459Z,7.83
2022-10-09T20:27:28.602Z,7.77
2022-10-09T20:30:00.480Z,7.73
2022-10-09T20:32:36.573Z,7.71
2022-10-09T20:35:10.208Z,7.70
2022-10-09T20:37:42.470Z,7.70
2022-10-09T20:40:14.641Z,7.67
2022-10-09T20:42:47.841Z,7.66
2022-10-09T20:45:20.366Z,7.63
2022-10-09T20:47:52.284Z,7.62
2022-10-09T20:50:24.293Z,7.61
2022-10-09T20:52:58.823Z,7.58
2022-10-09T20:55:31.745Z,7.56
2022-10-09T20:58:04.223Z,7.55
2022-10-09T21:00:36.130Z,7.53
2022-10-09T21:03:12.200Z,7.50
2022-10-09T21:05:45.287Z,7.48
2022-10-09T21:08:17.533Z,7.46
2022-10-09T21:10:51.082Z,7.42
2022-10-09T21:13:23.087Z,7.39
2022-10-09T21:15:55.316Z,7.38
2022-10-09T21:18:27.531Z,7.36
2022-10-09T21:21:03.561Z,7.35
2022-10-09T21:23:35.382Z,7.35
2022-10-09T21:26:11.813Z,7.32
2022-10-09T21:28:45.008Z,7.31
2022-10-09T21:31:19.205Z,7.28
2022-10-09T21:33:52.254Z,7.25
2022-10-09T21:36:30.815Z,7.22
2022-10-09T21:39:02.862Z,7.19
2022-10-09T21:41:35.249Z,7.16
2022-10-09T21:44:08.124Z,7.11
2022-10-09T21:46:41.849Z,7.07
2022-10-09T21:49:20.521Z,7.05
2022-10-09T21:51:53.225Z,7.00
2022-10-09T21:54:25.188Z,6.96
2022-10-09T21:56:57.783Z,6.91
2022-10-09T21:59:30.141Z,6.88
2022-10-09T22:02:02.526Z,6.82
2022-10-09T22:04:34.479Z,6.77
2022-10-09T22:07:06.288Z,6.71
2022-10-09T22:09:38.418Z,6.66
2022-10-09T22:12:10.339Z,6.62
2022-10-09T22:14:43.465Z,6.60
2022-10-09T22:17:15.583Z,6.56
2022-10-09T22:19:47.691Z,6.52
2022-10-09T22:22:19.666Z,6.48
2022-10-09T22:24:51.819Z,6.43
2022-10-09T22:27:23.909Z,6.39
2022-10-09T22:29:56.078Z,6.37
2022-10-09T22:32:28.350Z,6.34
2022-10-09T22:35:00.244Z,6.32
2022-10-09T22:37:31.995Z,6.30
2022-10-09T22:40:04.281Z,6.28
2022-10-09T22:42:36.380Z,6.25
2022-10-09T22:45:10.325Z,6.23
2022-10-09T22:47:42.259Z,6.21
2022-10-09T22:50:14.473Z,6.19
2022-10-09T22:52:46.335Z,6.16
2022-10-09T22:55:18.199Z,6.14
2022-10-09T22:57:50.087Z,6.11
2022-10-09T23:00:22.123Z,6.08
2022-10-09T23:02:54.201Z,6.02
2022-10-09T23:05:27.420Z,5.98
2022-10-09T23:07:59.272Z,5.93
2022-10-09T23:10:31.755Z,5.89
2022-10-09T23:13:03.785Z,5.85
2022-10-09T23:15:37.152Z,5.82
2022-10-09T23:18:09.396Z,5.78
2022-10-09T23:20:41.335Z,5.74
2022-10-09T23:23:16.487Z,5.71
2022-10-09T23:25:48.467Z,5.68
2022-10-09T23:28:20.483Z,5.66
2022-10-09T23:30:52.372Z,5.64
2022-10-09T23:33:24.234Z,5.62
2022-10-09T23:35:56.269Z,5.61
2022-10-09T23:38:28.250Z,5.60
2022-10-09T23:41:02.948Z,5.59
2022-10-09T23:43:36.786Z,5.57
2022-10-09T23:46:10.243Z,5.56
2022-10-09T23:48:42.597Z,5.55
2022-10-09T23:51:15.320Z,5.53
2022-10-09T23:53:47.977Z,5.49
2022-10-09T23:56:23.216Z,5.47
2022-10-09T23:58:55.692Z,5.42
